Hercílio Luz International Airport

SBFL · Santa Catarina, 巴西

罗盘
风向 的 风向 080° Hercílio Luz International Airport 14/32
风: 10 kt, 3 beaufort

5 kt

9 kt
改变
0 1.000 2.000 3.000 4.000 5.000
BKN 2.000 ft
METAR SBFL 091600Z 08010KT 9999 BKN020 29/23 Q1009

METAR Hercílio Luz International Airport - SBFL/FLN

Hercílio Luz International Airport是,巴西中的大型机场。 该机场有2条跑道: 14/32 和 3/21. 该领域的国际民航组织标志是SBFL 它的国际航空运输协会代码是FLN.

这份报告是针对2022年12月9日 13:00, 当地时间在Hercílio Luz International Airport进行的。

机场观察

风向为080°,速度为10 kt。

可见度为10 km 或者更多。

有碎云在2.000 ft的高度。 破损或更高的上限为2.000 ft。

温度和风寒是29 °C。 热指数为32。 露点为23 °C,相对湿度为70%。 海平面上的气压为1009 hPa (QNH)。

白天

今天,太阳从05:11升起,在19:01降落。 这适用于Hercílio Luz International Airport,世界夏令时可能有所不同。 当地时间与世界标准时间之间的时差为-3 小时。 当前,没有夏令时有效。

公司介绍

我们没有关于这个机场的公司信息。

体会

到Vliegles.nl去找飞行课程,跳伞和其他飞行体验。 浏览页面,了解Hercílio Luz International Airport附近所有可用的活动。 你也可以使用搜索功能来寻找你所在地附近的特定飞行课程、跳伞或其他飞行体验。

跑道

Id 标题 侧风 逆风 侧风 %
14/32 142°-322° 9 kt 5 kt 88 %
3/21 032°-212° 7 kt 7 kt 74 %

逆风成分最大的方向会被突出显示,并用于横风计算。 这并不一定意味着这个方向在使用。

乌云

2.000 ft BKN 碎云

温度 & 天气

温度 29 °C
露点 23 °C
相对湿度 70%
热度指数 32 °C
Kp-index 1 (0-9)

白天

日出
05:11
中午
12:06
日落
19:01 (5:30)

小工具

你想在你的网站上有一个关于Hercílio Luz International Airport的当前航空天气(METAR)的小部件吗?

显示HTML代码

我们和第三方通过cookies跟踪您在我们网站上的互联网行为。如果你继续,我们认为你同意我们的饼干政策